DRI Storm Peak Lab. Weather observations

Data are for 5 minute period ending at time listed.
 Day   Time    Ave.   Ave.  Ave.  Vector  Max.   Total    Baro.    Solar      Aerosol      Ave.  Ultrafine   Snow  
  of    of     Air    Rel.  Wind   Wind   Wind  Precip.   Pres.  Radiation   Aerosol      Ozone   Aerosol    Depth 
Year   Day     Temp.  Hum.  Speed  Dir.   Gust                               Ave.   Max.            Ave.           
2016   (MST)    F      %     mph   deg.    mph    in.      mb.     w/m2         #/cm3      ppbv    #/cm3      in.  
-------------------------------------------------------------------------------------------------------------------
  41   12:50   31.7    29   13.8   245    19.9   999.00    695.1    999.0    999000   999000   999.0    999000   999.0
  41   12:55   31.4    31    5.5   259    14.1   999.00    695.1    999.0    999000   999000   999.0    999000   999.0
  41   13:00   31.9    33    4.3   272     6.6   999.00    695.0    999.0    999000   999000   999.0    999000   999.0
  41   13:05   31.3    33    8.4   265    15.9   999.00    695.0    999.0    999000   999000   999.0    999000   999.0
  41   13:10   31.1    33    5.8   270    11.3   999.00    695.0    999.0    999000   999000   999.0    999000   999.0
  41   13:15   31.1    34    4.8   273     8.3   999.00    694.9    999.0    999000   999000   999.0    999000   999.0
  41   13:20   31.3    34    6.4   269    11.1   999.00    694.8    999.0    999000   999000   999.0    999000   999.0
  41   13:25   31.2    33    5.9   264    11.1   999.00    694.7    999.0    999000   999000   999.0    999000   999.0
  41   13:30   31.1    34    7.9   258    18.0   999.00    694.6    999.0    999000   999000   999.0    999000   999.0
  41   13:35   30.9    34    8.9   261    17.1   999.00    694.5    999.0    999000   999000   999.0    999000   999.0
  41   13:40   30.5    34    8.9   254    14.8   999.00    694.6    999.0    999000   999000   999.0    999000   999.0
  41   13:45   30.6    33    9.5   259    12.8   999.00    694.6    999.0    999000   999000   999.0    999000   999.0
  41   13:50   30.1    35    8.8   268    14.4   999.00    694.5    999.0    999000   999000   999.0    999000   999.0
  41   13:55   30.0    36   10.1   276    15.2   999.00    694.4    999.0    999000   999000   999.0    999000   999.0
  41   14:00   29.9    37    9.6   279    17.4   999.00    694.4    999.0    999000   999000   999.0    999000   999.0
  41   14:05   30.0    36   11.8   280    19.3   999.00    694.4    999.0    999000   999000   999.0    999000   999.0
  41   14:10   30.2    36    9.8   283    14.1   999.00    694.4    999.0    999000   999000   999.0    999000   999.0
  41   14:15   30.0    37   12.1   280    21.3   999.00    694.4    999.0    999000   999000   999.0    999000   999.0
  41   14:20   30.4    35   13.3   272    21.5   999.00    694.4    999.0    999000   999000   999.0    999000   999.0
  41   14:25   30.1    36   13.1   286    21.5   999.00    694.4    999.0    999000   999000   999.0    999000   999.0
  41   14:30   29.4    38   15.0   286    25.6   999.00    694.3    999.0    999000   999000   999.0    999000   999.0
  41   14:35   29.5    39   14.4   285    21.9   999.00    694.3    999.0    999000   999000   999.0    999000   999.0
  41   14:40   29.2    40   15.5   292    20.2   999.00    694.3    999.0    999000   999000   999.0    999000   999.0
  41   14:45   29.0    40   17.2   292    25.6   999.00    694.2    999.0    999000   999000   999.0    999000   999.0
  41   14:50   28.8    40   16.6   286    21.3   999.00    694.2    999.0    999000   999000   999.0    999000   999.0
  41   14:55   28.3    42   16.0   294    22.8   999.00    694.2    999.0    999000   999000   999.0    999000   999.0
  41   15:00   27.6    43   16.0   298    20.8   999.00    694.1    999.0    999000   999000   999.0    999000   999.0
  41   15:05   27.6    43   15.0   298    21.1   999.00    694.0    999.0    999000   999000   999.0    999000   999.0
  41   15:10   27.9    43   15.2   294    18.4   999.00    693.9    999.0    999000   999000   999.0    999000   999.0
  41   15:15   27.9    44   14.1   294    19.7   999.00    694.0    999.0    999000   999000   999.0    999000   999.0
  41   15:20   27.9    44   15.9   295    19.9   999.00    693.9    999.0    999000   999000   999.0    999000   999.0
  41   15:25   28.3    42   18.9   297    25.2   999.00    693.9    999.0    999000   999000   999.0    999000   999.0
  41   15:30   28.3    41   19.5   294    25.6   999.00    693.9    999.0    999000   999000   999.0    999000   999.0
  41   15:35   28.2    42   18.8   294    24.7   999.00    694.0    999.0    999000   999000   999.0    999000   999.0
  41   15:40   27.8    44   17.6   294    23.8   999.00    694.0    999.0    999000   999000   999.0    999000   999.0
  41   15:45   27.8    45   18.1   304    21.3   999.00    693.9    999.0    999000   999000   999.0    999000   999.0
  41   15:50   27.9    43   18.8   299    23.8   999.00    693.9    999.0    999000   999000   999.0    999000   999.0
  41   15:55   27.8    44   18.7   289    22.8   999.00    693.9    999.0    999000   999000   999.0    999000   999.0
  41   16:00   27.8    44   18.6   293    23.2   999.00    694.0    999.0    999000   999000   999.0    999000   999.0
  41   16:05   27.8    44   19.3   294    27.3   999.00    693.9    999.0    999000   999000   999.0    999000   999.0
  41   16:10   27.7    45   19.3   293    24.0   999.00    693.9    999.0    999000   999000   999.0    999000   999.0
  41   16:15   27.4    46   18.6   287    23.8   999.00    694.0    999.0    999000   999000   999.0    999000   999.0
  41   16:20   27.1    47   18.8   293    22.1   999.00    694.0    999.0    999000   999000   999.0    999000   999.0
  41   16:25   26.9    48   17.6   294    21.7   999.00    694.0    999.0    999000   999000   999.0    999000   999.0
  41   16:30   26.6    50   18.3   296    21.5   999.00    694.1    999.0    999000   999000   999.0    999000   999.0
  41   16:35   26.6    50   18.8   300    23.0   999.00    694.1    999.0    999000   999000   999.0    999000   999.0
  41   16:40   26.8    49   18.4   293    21.7   999.00    694.1    999.0    999000   999000   999.0    999000   999.0
  41   16:45   26.9    47   19.9   291    28.6   999.00    694.1    999.0    999000   999000   999.0    999000   999.0
  41   16:50   26.9    47   19.6   290    23.8   999.00    694.0    999.0    999000   999000   999.0    999000   999.0
  41   16:55   26.6    47   21.1   292    26.2   999.00    694.1    999.0    999000   999000   999.0    999000   999.0
  41   17:00   26.1    47   20.8   290    27.7   999.00    694.1    999.0    999000   999000   999.0    999000   999.0
  41   17:05   25.8    49   19.4   294    24.9   999.00    694.2    999.0    999000   999000   999.0    999000   999.0
  41   17:10   25.7    49   19.6   296    23.8   999.00    694.1    999.0    999000   999000   999.0    999000   999.0
  41   17:15   25.7    48   20.6   304    24.1   999.00    694.2    999.0    999000   999000   999.0    999000   999.0
  41   17:20   25.9    46   21.2   295    24.1   999.00    694.2    999.0    999000   999000   999.0    999000   999.0
  41   17:25   25.9    46   20.4   301    23.4   999.00    694.3    999.0    999000   999000   999.0    999000   999.0
  41   17:30   25.2    48   20.2   302    24.0   999.00    694.2    999.0    999000   999000   999.0    999000   999.0
  41   17:35   25.3    47   19.5   299    21.3   999.00    694.2    999.0    999000   999000   999.0    999000   999.0
  41   17:40   25.4    46   18.2   304    21.1   999.00    694.3    999.0    999000   999000   999.0    999000   999.0
  41   17:45   25.4    45   18.5   298    23.4   999.00    694.4    999.0    999000   999000   999.0    999000   999.0
  41   17:50   25.5    45   15.8   302    21.7   999.00    694.4    999.0    999000   999000   999.0    999000   999.0
  41   17:55   25.1    46   15.8   294    18.7   999.00    694.3    999.0    999000   999000   999.0    999000   999.0
  41   18:00   25.2    45   16.1   296    19.9   999.00    694.4    999.0    999000   999000   999.0    999000   999.0
  41   18:05   25.2    46   15.0   295    22.1   999.00    694.4    999.0    999000   999000   999.0    999000   999.0
  41   18:10   25.3    45   13.5   297    19.7   999.00    694.4    999.0    999000   999000   999.0    999000   999.0
  41   18:15   25.3    44   15.7   286    22.3   999.00    694.4    999.0    999000   999000   999.0    999000   999.0
  41   18:20   25.4    44   14.3   293    18.9   999.00    694.4    999.0    999000   999000   999.0    999000   999.0
  41   18:25   25.3    44   16.1   296    20.6   999.00    694.5    999.0    999000   999000   999.0    999000   999.0
  41   18:30   25.4    44   15.9   302    19.3   999.00    694.6    999.0    999000   999000   999.0    999000   999.0
  41   18:35   25.0    46   16.9   294    19.9   999.00    694.5    999.0    999000   999000   999.0    999000   999.0
  41   18:40   25.0    46   17.9   300    22.1   999.00    694.5    999.0    999000   999000   999.0    999000   999.0
  41   18:45   24.6    47   16.6   301    20.6   999.00    694.6    999.0    999000   999000   999.0    999000   999.0
  41   18:50   24.5    47   17.1   307    20.4   999.00    694.6    999.0    999000   999000   999.0    999000   999.0
  41   18:55   24.5    46   18.9   307    22.3   999.00    694.5    999.0    999000   999000   999.0    999000   999.0
  41   19:00   24.6    45   18.0   310    21.9   999.00    694.5    999.0    999000   999000   999.0    999000   999.0
  41   19:05   24.7    44   18.4   303    21.1   999.00    694.4    999.0    999000   999000   999.0    999000   999.0
  41   19:10   25.0    42   19.2   306    22.8   999.00    694.4    999.0    999000   999000   999.0    999000   999.0
  41   19:15   24.8    42   17.7   303    20.0   999.00    694.4    999.0    999000   999000   999.0    999000   999.0
  41   19:20   24.6    43   17.6   298    21.1   999.00    694.4    999.0    999000   999000   999.0    999000   999.0
  41   19:25   24.6    43   17.8   297    20.4   999.00    694.3    999.0    999000   999000   999.0    999000   999.0
  41   19:30   24.7    43   17.6   295    20.2   999.00    694.2    999.0    999000   999000   999.0    999000   999.0
  41   19:35   24.4    44   16.9   297    19.3   999.00    694.3    999.0    999000   999000   999.0    999000   999.0
  41   19:40   24.3    45   16.0   301    19.3   999.00    694.4    999.0    999000   999000   999.0    999000   999.0
  41   19:45   23.9    46   15.9   297    19.5   999.00    694.3    999.0    999000   999000   999.0    999000   999.0
  41   19:50   24.0    46   16.2   298    19.9   999.00    694.3    999.0    999000   999000   999.0    999000   999.0
  41   19:55   24.0    46   15.9   299    20.4   999.00    694.2    999.0    999000   999000   999.0    999000   999.0
  41   20:00   23.8    47   16.0   302    19.1   999.00    694.2    999.0    999000   999000   999.0    999000   999.0
  41   20:05   23.5    48   15.7   301    19.1   999.00    694.3    999.0    999000   999000   999.0    999000   999.0
  41   20:10   23.3    48   16.3   300    20.2   999.00    694.3    999.0    999000   999000   999.0    999000   999.0
  41   20:15   23.2    50   15.7   295    22.1   999.00    694.3    999.0    999000   999000   999.0    999000   999.0
  41   20:20   23.4    49   16.3   298    18.4   999.00    694.2    999.0    999000   999000   999.0    999000   999.0
  41   20:25   23.4    50   18.1   296    21.5   999.00    694.2    999.0    999000   999000   999.0    999000   999.0
  41   20:30   23.3    50   16.3   300    20.2   999.00    694.3    999.0    999000   999000   999.0    999000   999.0
  41   20:35   23.3    50   16.0   299    24.0   999.00    694.3    999.0    999000   999000   999.0    999000   999.0
  41   20:40   23.2    50   15.6   303    20.6   999.00    694.4    999.0    999000   999000   999.0    999000   999.0
  41   20:45   23.4    50   17.0   298    22.6   999.00    694.4    999.0    999000   999000   999.0    999000   999.0
  41   20:50   23.5    49   16.0   298    18.7   999.00    694.4    999.0    999000   999000   999.0    999000   999.0
  41   20:55   23.6    49   13.2   297    17.1   999.00    694.6    999.0    999000   999000   999.0    999000   999.0
  41   21:00   23.3    50   13.3   295    17.2   999.00    694.5    999.0    999000   999000   999.0    999000   999.0
  41   21:05   23.4    49   13.5   286    18.9   999.00    694.5    999.0    999000   999000   999.0    999000   999.0
  41   21:10   23.4    49   13.8   290    18.7   999.00    694.5    999.0    999000   999000   999.0    999000   999.0
  41   21:15   23.3    50   14.2   297    18.2   999.00    694.6    999.0    999000   999000   999.0    999000   999.0
  41   21:20   23.1    50   13.2   293    15.4   999.00    694.6    999.0    999000   999000   999.0    999000   999.0
  41   21:25   23.0    51   11.4   296    15.2   999.00    694.7    999.0    999000   999000   999.0    999000   999.0
  41   21:30   22.9    51   11.7   286    16.3   999.00    694.7    999.0    999000   999000   999.0    999000   999.0
  41   21:35   22.8    51    8.5   286    13.5   999.00    694.7    999.0    999000   999000   999.0    999000   999.0
  41   21:40   22.8    51   12.2   282    15.2   999.00    694.7    999.0    999000   999000   999.0    999000   999.0
  41   21:45   22.9    50   13.2   290    17.4   999.00    694.7    999.0    999000   999000   999.0    999000   999.0
  41   21:50   23.1    50   13.1   290    16.1   999.00    694.6    999.0    999000   999000   999.0    999000   999.0
  41   21:55   23.0    50   13.3   287    15.8   999.00    694.6    999.0    999000   999000   999.0    999000   999.0
  41   22:00   23.2    50   15.1   294    17.8   999.00    694.6    999.0    999000   999000   999.0    999000   999.0
  41   22:05   23.2    49   14.2   294    17.2   999.00    694.7    999.0    999000   999000   999.0    999000   999.0
  41   22:10   23.2    50   12.5   292    14.8   999.00    694.8    999.0    999000   999000   999.0    999000   999.0
  41   22:15   23.1    50   10.9   291    14.1   999.00    694.8    999.0    999000   999000   999.0    999000   999.0
  41   22:20   22.9    50   10.8   286    13.0   999.00    694.8    999.0    999000   999000   999.0    999000   999.0
  41   22:25   22.9    50   10.8   286    13.9   999.00    694.8    999.0    999000   999000   999.0    999000   999.0
  41   22:30   22.9    50   10.0   284    13.7   999.00    694.9    999.0    999000   999000   999.0    999000   999.0
  41   22:35   22.8    50   10.1   286    13.0   999.00    694.9    999.0    999000   999000   999.0    999000   999.0
  41   22:40   22.7    50   10.0   276    12.8   999.00    694.9    999.0    999000   999000   999.0    999000   999.0
  41   22:45   22.9    50    9.6   273    12.4   999.00    694.9    999.0    999000   999000   999.0    999000   999.0
  41   22:50   23.0    50   10.3   265    13.0   999.00    694.9    999.0    999000   999000   999.0    999000   999.0
  41   22:55   23.2    49   10.9   261    14.6   999.00    694.9    999.0    999000   999000   999.0    999000   999.0
  41   23:00   23.2    49   11.8   259    14.4   999.00    694.9    999.0    999000   999000   999.0    999000   999.0
  41   23:05   23.3    49   12.0   266    14.8   999.00    695.0    999.0    999000   999000   999.0    999000   999.0
  41   23:10   23.4    48   10.9   262    13.9   999.00    695.0    999.0    999000   999000   999.0    999000   999.0
  41   23:15   23.4    48    9.7   264    12.4   999.00    695.1    999.0    999000   999000   999.0    999000   999.0
  41   23:20   23.2    49    9.8   259    12.4   999.00    695.1    999.0    999000   999000   999.0    999000   999.0
  41   23:25   23.2    49    9.0   260    12.8   999.00    695.1    999.0    999000   999000   999.0    999000   999.0
  41   23:30   23.0    50    9.6   260    12.4   999.00    695.1    999.0    999000   999000   999.0    999000   999.0
  41   23:35   23.2    49   11.2   261    14.1   999.00    695.1    999.0    999000   999000   999.0    999000   999.0
  41   23:40   23.3    49   11.2   262    13.0   999.00    695.1    999.0    999000   999000   999.0    999000   999.0
  41   23:45   23.4    49   11.0   259    13.5   999.00    695.0    999.0    999000   999000   999.0    999000   999.0
  41   23:50   23.3    49   11.2   258    13.5   999.00    695.0    999.0    999000   999000   999.0    999000   999.0
  41   23:55   23.4    48    9.5   258    14.3   999.00    695.0    999.0    999000   999000   999.0    999000   999.0
  42    0:00   23.3    49   11.2   252    13.9   999.00    694.9    999.0    999000   999000   999.0    999000   999.0
  42    0:05   23.4    48    9.9   249    11.8   999.00    694.9    999.0    999000   999000   999.0    999000   999.0
  42    0:10   23.3    48   10.9   241    13.9   999.00    694.9    999.0    999000   999000   999.0    999000   999.0
  42    0:15   23.7    47   13.1   243    16.7   999.00    694.8    999.0    999000   999000   999.0    999000   999.0
  42    0:20   23.6    47   13.2   238    15.9   999.00    694.7    999.0    999000   999000   999.0    999000   999.0
  42    0:25   23.7    48   15.0   234    18.2   999.00    694.6    999.0    999000   999000   999.0    999000   999.0
  42    0:30   23.3    49   13.8   229    17.6   999.00    694.6    999.0    999000   999000   999.0    999000   999.0
  42    0:35   23.4    49   13.5   231    19.3   999.00    694.6    999.0    999000   999000   999.0    999000   999.0
  42    0:40   23.3    49   13.6   234    19.7   999.00    694.7    999.0    999000   999000   999.0    999000   999.0
  42    0:45   23.1    50   14.4   237    20.6   999.00    694.7    999.0    999000   999000   999.0    999000   999.0
  42    0:50   23.0    50   15.1   233    21.0   999.00    694.7    999.0    999000   999000   999.0    999000   999.0
  42    0:55   22.8    50   12.5   231    17.2   999.00    694.7    999.0    999000   999000   999.0    999000   999.0
  42    1:00   22.7    51   13.5   232    17.6   999.00    694.6    999.0    999000   999000   999.0    999000   999.0
  42    1:05   22.5    51   14.9   230    18.9   999.00    694.6    999.0    999000   999000   999.0    999000   999.0
  42    1:10   22.9    50   16.8   232    19.9   999.00    694.6    999.0    999000   999000   999.0    999000   999.0
  42    1:15   22.8    50   15.0   231    18.5   999.00    694.6    999.0    999000   999000   999.0    999000   999.0
  42    1:20   22.6    51   15.2   233    18.0   999.00    694.5    999.0    999000   999000   999.0    999000   999.0
  42    1:25   22.7    50   15.1   234    18.0   999.00    694.5    999.0    999000   999000   999.0    999000   999.0
  42    1:30   22.6    51   15.7   237    17.8   999.00    694.4    999.0    999000   999000   999.0    999000   999.0
  42    1:35   22.7    51   15.3   240    18.9   999.00    694.5    999.0    999000   999000   999.0    999000   999.0
  42    1:40   22.8    51   14.6   245    19.3   999.00    694.5    999.0    999000   999000   999.0    999000   999.0
  42    1:45   22.7    51   12.6   248    17.4   999.00    694.6    999.0    999000   999000   999.0    999000   999.0
  42    1:50   22.7    51   14.4   239    16.5   999.00    694.5    999.0    999000   999000   999.0    999000   999.0
  42    1:55   22.5    52   11.9   237    15.8   999.00    694.5    999.0    999000   999000   999.0    999000   999.0
  42    2:00   22.5    52   11.6   240    15.8   999.00    694.6    999.0    999000   999000   999.0    999000   999.0
  42    2:05   22.3    51   10.6   239    13.2   999.00    694.7    999.0    999000   999000   999.0    999000   999.0
  42    2:10   22.5    52   13.6   242    15.6   999.00    694.7    999.0    999000   999000   999.0    999000   999.0
  42    2:15   22.7    52   12.7   242    16.3   999.00    694.7    999.0    999000   999000   999.0    999000   999.0
  42    2:20   22.6    52   13.7   236    18.0   999.00    694.6    999.0    999000   999000   999.0    999000   999.0
  42    2:25   22.6    52   13.9   240    17.8   999.00    694.6    999.0    999000   999000   999.0    999000   999.0
  42    2:30   22.8    52   13.1   241    18.0   999.00    694.6    999.0    999000   999000   999.0    999000   999.0
  42    2:35   22.6    52   15.4   235    19.3   999.00    694.5    999.0    999000   999000   999.0    999000   999.0
  42    2:40   22.7    52   16.7   234    21.5   999.00    694.5    999.0    999000   999000   999.0    999000   999.0
  42    2:45   22.8    51   17.4   238    20.0   999.00    694.5    999.0    999000   999000   999.0    999000   999.0
  42    2:50   22.9    51   14.3   238    20.0   999.00    694.5    999.0    999000   999000   999.0    999000   999.0
  42    2:55   22.9    51   15.9   242    22.5   999.00    694.4    999.0    999000   999000   999.0    999000   999.0
  42    3:00   22.9    51   17.6   245    23.6   999.00    694.3    999.0    999000   999000   999.0    999000   999.0
  42    3:05   22.7    52   15.1   248    19.9   999.00    694.2    999.0    999000   999000   999.0    999000   999.0
  42    3:10   22.8    51   16.4   249    19.1   999.00    694.2    999.0    999000   999000   999.0    999000   999.0
  42    3:15   22.8    51   14.7   252    18.9   999.00    694.2    999.0    999000   999000   999.0    999000   999.0
  42    3:20   22.6    52   14.6   252    18.7   999.00    694.2    999.0    999000   999000   999.0    999000   999.0
  42    3:25   22.6    51   12.7   253    17.1   999.00    694.3    999.0    999000   999000   999.0    999000   999.0
  42    3:30   22.4    52   12.9   251    14.8   999.00    694.2    999.0    999000   999000   999.0    999000   999.0
  42    3:35   22.2    52   14.3   239    17.1   999.00    694.1    999.0    999000   999000   999.0    999000   999.0
  42    3:40   22.1    53   14.1   241    16.5   999.00    694.1    999.0    999000   999000   999.0    999000   999.0
  42    3:45   22.0    53   14.4   251    16.1   999.00    694.2    999.0    999000   999000   999.0    999000   999.0
  42    3:50   22.2    53   16.6   264    21.7   999.00    694.2    999.0    999000   999000   999.0    999000   999.0
  42    3:55   22.4    53   13.9   268    20.2   999.00    694.1    999.0    999000   999000   999.0    999000   999.0
  42    4:00   22.1    54   13.5   272    19.5   999.00    694.1    999.0    999000   999000   999.0    999000   999.0
  42    4:05   21.9    54   14.3   278    19.1   999.00    694.1    999.0    999000   999000   999.0    999000   999.0
  42    4:10   22.1    54   16.1   269    19.5   999.00    694.0    999.0    999000   999000   999.0    999000   999.0
  42    4:15   22.0    54   15.9   276    18.7   999.00    694.0    999.0    999000   999000   999.0    999000   999.0
  42    4:20   21.9    54   15.3   279    18.2   999.00    694.0    999.0    999000   999000   999.0    999000   999.0
  42    4:25   21.9    54   14.2   280    17.1   999.00    694.0    999.0    999000   999000   999.0    999000   999.0
  42    4:30   21.8    55   15.0   284    18.5   999.00    694.0    999.0    999000   999000   999.0    999000   999.0
  42    4:35   21.8    55   14.8   278    18.9   999.00    694.0    999.0    999000   999000   999.0    999000   999.0
  42    4:40   21.7    55   15.4   282    18.7   999.00    694.1    999.0    999000   999000   999.0    999000   999.0
  42    4:45   21.7    55   14.7   276    17.6   999.00    694.1    999.0    999000   999000   999.0    999000   999.0
  42    4:50   21.7    55   14.1   281    16.9   999.00    694.1    999.0    999000   999000   999.0    999000   999.0
  42    4:55   21.6    55   15.1   282    18.7   999.00    694.2    999.0    999000   999000   999.0    999000   999.0
  42    5:00   21.7    55   14.7   282    18.4   999.00    694.2    999.0    999000   999000   999.0    999000   999.0
  42    5:05   21.8    54   14.9   282    18.9   999.00    694.3    999.0    999000   999000   999.0    999000   999.0
  42    5:10   22.1    54   15.9   283    18.7   999.00    694.3    999.0    999000   999000   999.0    999000   999.0
  42    5:15   22.1    54   16.4   287    18.7   999.00    694.3    999.0    999000   999000   999.0    999000   999.0
  42    5:20   22.0    55   16.2   289    19.9   999.00    694.3    999.0    999000   999000   999.0    999000   999.0
  42    5:25   22.1    54   15.4   285    19.1   999.00    694.4    999.0    999000   999000   999.0    999000   999.0
  42    5:30   21.9    54   16.0   284    19.7   999.00    694.4    999.0    999000   999000   999.0    999000   999.0
  42    5:35   22.1    54   16.3   286    19.9   999.00    694.4    999.0    999000   999000   999.0    999000   999.0
  42    5:40   22.2    54   15.9   289    19.5   999.00    694.4    999.0    999000   999000   999.0    999000   999.0
  42    5:45   22.1    54   15.8   288    18.4   999.00    694.5    999.0    999000   999000   999.0    999000   999.0
  42    5:50   22.1    54   15.9   281    18.4   999.00    694.5    999.0    999000   999000   999.0    999000   999.0
  42    5:55   22.2    54   15.7   286    18.2   999.00    694.5    999.0    999000   999000   999.0    999000   999.0
  42    6:00   22.3    54   15.8   292    18.4   999.00    694.5    999.0    999000   999000   999.0    999000   999.0
  42    6:05   22.3    54   16.5   289    19.1   999.00    694.5    999.0    999000   999000   999.0    999000   999.0
  42    6:10   22.5    53   16.3   290    19.5   999.00    694.5    999.0    999000   999000   999.0    999000   999.0
  42    6:15   22.6    53   16.5   294    18.9   999.00    694.6    999.0    999000   999000   999.0    999000   999.0
  42    6:20   22.6    53   15.5   294    17.6   999.00    694.6    999.0    999000   999000   999.0    999000   999.0
  42    6:25   22.6    53   16.3   295    19.5   999.00    694.7    999.0    999000   999000   999.0    999000   999.0
  42    6:30   22.4    54   15.3   295    18.0   999.00    694.8    999.0    999000   999000   999.0    999000   999.0
  42    6:35   22.2    54   16.6   293    19.7   999.00    694.7    999.0    999000   999000   999.0    999000   999.0
  42    6:40   22.6    53   17.5   294    20.4   999.00    694.7    999.0    999000   999000   999.0    999000   999.0
  42    6:45   22.6    53   15.6   297    19.3   999.00    694.8    999.0    999000   999000   999.0    999000   999.0
  42    6:50   22.4    53   16.6   295    19.9   999.00    694.8    999.0    999000   999000   999.0    999000   999.0
  42    6:55   22.4    53   17.3   294    19.5   999.00    694.8    999.0    999000   999000   999.0    999000   999.0
  42    7:00   22.5    53   16.7   292    18.5   999.00    694.8    999.0    999000   999000   999.0    999000   999.0
  42    7:05   22.5    53   15.8   291    18.7   999.00    694.8    999.0    999000   999000   999.0    999000   999.0
  42    7:10   22.7    52   16.5   293    18.9   999.00    694.8    999.0    999000   999000   999.0    999000   999.0
  42    7:15   22.7    53   15.8   295    18.5   999.00    694.9    999.0    999000   999000   999.0    999000   999.0
  42    7:20   22.8    52   15.9   294    19.1   999.00    694.9    999.0    999000   999000   999.0    999000   999.0
  42    7:25   22.9    52   15.3   291    18.4   999.00    694.9    999.0    999000   999000   999.0    999000   999.0
  42    7:30   23.1    51   16.6   291    20.4   999.00    694.9    999.0    999000   999000   999.0    999000   999.0
  42    7:35   23.2    50   16.6   288    20.0   999.00    694.9    999.0    999000   999000   999.0    999000   999.0
  42    7:40   23.5    50   15.4   284    21.0   999.00    694.9    999.0    999000   999000   999.0    999000   999.0
  42    7:45   23.0    51   14.7   296    18.9   999.00    694.9    999.0    999000   999000   999.0    999000   999.0
  42    7:50   22.9    52   14.1   296    18.0   999.00    695.0    999.0    999000   999000   999.0    999000   999.0
  42    7:55   23.1    51   14.0   297    20.4   999.00    695.0    999.0    999000   999000   999.0    999000   999.0
  42    8:00   23.1    51   14.4   292    17.8   999.00    695.0    999.0    999000   999000   999.0    999000   999.0
  42    8:05   23.4    50   15.2   290    19.5   999.00    695.0    999.0    999000   999000   999.0    999000   999.0
  42    8:10   23.5    49   15.2   288    18.5   999.00    695.0    999.0    999000   999000   999.0    999000   999.0
  42    8:15   23.6    49   14.3   283    17.2   999.00    695.0    999.0    999000   999000   999.0    999000   999.0
  42    8:20   23.5    49   13.8   281    16.9   999.00    695.0    999.0    999000   999000   999.0    999000   999.0
  42    8:25   23.9    48   13.9   283    16.9   999.00    695.0    999.0    999000   999000   999.0    999000   999.0
  42    8:30   23.9    48   14.2   290    18.0   999.00    695.1    999.0    999000   999000   999.0    999000   999.0
  42    8:35   24.1    48   15.2   295    18.4   999.00    695.1    999.0    999000   999000   999.0    999000   999.0
  42    8:40   24.1    48   14.5   290    17.4   999.00    695.1    999.0    999000   999000   999.0    999000   999.0
  42    8:45   24.3    48   13.9   297    15.9   999.00    695.2    999.0    999000   999000   999.0    999000   999.0
  42    8:50   24.4    48   15.2   291    19.3   999.00    695.1    999.0    999000   999000   999.0    999000   999.0
  42    8:55   24.6    48   15.5   301    18.7   999.00    695.2    999.0    999000   999000   999.0    999000   999.0
  42    9:00   24.5    48   15.0   302    16.7   999.00    695.2    999.0    999000   999000   999.0    999000   999.0
  42    9:05   24.6    48   14.9   305    17.1   999.00    695.2    999.0    999000   999000   999.0    999000   999.0
  42    9:10   24.7    48   15.6   301    17.8   999.00    695.3    999.0    999000   999000   999.0    999000   999.0
  42    9:15   24.9    47   14.9   301    17.4   999.00    695.4    999.0    999000   999000   999.0    999000   999.0
  42    9:20   24.8    47   14.0   300    16.3   999.00    695.3    999.0    999000   999000   999.0    999000   999.0
  42    9:25   24.8    47   14.0   293    16.5   999.00    695.3    999.0    999000   999000   999.0    999000   999.0
  42    9:30   24.8    47   14.8   296    18.0   999.00    695.3    999.0    999000   999000   999.0    999000   999.0
  42    9:35   24.9    48   13.8   298    16.5   999.00    695.3    999.0    999000   999000   999.0    999000   999.0
  42    9:40   25.0    47   14.9   297    18.0   999.00    695.3    999.0    999000   999000   999.0    999000   999.0
  42    9:45   25.0    46   16.0   290    19.3   999.00    695.3    999.0    999000   999000   999.0    999000   999.0
  42    9:50   24.9    48   14.1   289    16.5   999.00    695.3    999.0    999000   999000   999.0    999000   999.0
  42    9:55   25.1    47   12.5   280    16.5   999.00    695.2    999.0    999000   999000   999.0    999000   999.0
  42   10:00   25.5    46   14.2   285    18.9   999.00    695.2    999.0    999000   999000   999.0    999000   999.0
  42   10:05   25.6    45   13.4   281    17.1   999.00    695.3    999.0    999000   999000   999.0    999000   999.0
  42   10:10   25.6    45   13.7   275    18.0   999.00    695.2    999.0    999000   999000   999.0    999000   999.0
  42   10:15   25.7    45   14.8   278    18.7   999.00    695.2    999.0    999000   999000   999.0    999000   999.0
  42   10:20   25.9    44   13.9   285    16.9   999.00    695.3    999.0    999000   999000   999.0    999000   999.0
  42   10:25   25.9    45   14.1   290    18.0   999.00    695.4    999.0    999000   999000   999.0    999000   999.0
  42   10:30   25.8    45   13.8   292    18.4   999.00    695.3    999.0    999000   999000   999.0    999000   999.0
  42   10:35   26.1    45   14.5   285    18.0   999.00    695.3    999.0    999000   999000   999.0    999000   999.0
  42   10:40   26.3    44   15.4   289    19.7   999.00    695.4    999.0    999000   999000   999.0    999000   999.0
  42   10:45   26.0    46   15.5   296    20.2   999.00    695.4    999.0    999000   999000   999.0    999000   999.0
  42   10:50   25.9    45   15.4   293    19.5   999.00    695.4    999.0    999000   999000   999.0    999000   999.0
  42   10:55   26.0    45   16.4   296    21.5   999.00    695.4    999.0    999000   999000   999.0    999000   999.0
  42   11:00   26.1    46   15.6   298    19.1   999.00    695.4    999.0    999000   999000   999.0    999000   999.0
  42   11:05   26.4    44   16.5   293    21.0   999.00    695.3    999.0    999000   999000   999.0    999000   999.0
  42   11:10   26.9    44   16.7   280    21.5   999.00    695.3    999.0    999000   999000   999.0    999000   999.0
  42   11:15   27.1    43   15.9   289    19.3   999.00    695.3    999.0    999000   999000   999.0    999000   999.0
  42   11:20   27.1    44   14.5   291    20.8   999.00    695.4    999.0    999000   999000   999.0    999000   999.0
  42   11:25   27.3    44   14.7   295    17.8   999.00    695.2    999.0    999000   999000   999.0    999000   999.0
  42   11:30   26.9    45   14.1   293    18.5   999.00    695.2    999.0    999000   999000   999.0    999000   999.0
  42   11:35   26.9    45   13.6   284    17.2   999.00    695.1    999.0    999000   999000   999.0    999000   999.0
  42   11:40   27.1    43   14.5   288    19.9   999.00    695.1    999.0    999000   999000   999.0    999000   999.0
  42   11:45   27.2    43   13.6   283    17.8   999.00    695.2    999.0    999000   999000   999.0    999000   999.0
  42   11:50   27.3    44   14.1   278    22.3   999.00    695.1    999.0    999000   999000   999.0    999000   999.0
  42   11:55   27.4    43   14.6   278    19.9   999.00    695.1    999.0    999000   999000   999.0    999000   999.0
  42   12:00   27.3    42   17.8   271    21.5   999.00    695.1    999.0    999000   999000   999.0    999000   999.0
  42   12:05   27.3    42   17.8   266    22.5   999.00    695.0    999.0    999000   999000   999.0    999000   999.0
  42   12:10   27.6    42   15.5   272    21.5   999.00    695.0    999.0    999000   999000   999.0    999000   999.0
  42   12:15   27.9    41   17.6   274    22.1   999.00    695.0    999.0    999000   999000   999.0    999000   999.0
  42   12:20   27.9    41   17.0   272    22.5   999.00    695.0    999.0    999000   999000   999.0    999000   999.0
  42   12:25   28.2    41   16.7   277    24.1   999.00    695.1    999.0    999000   999000   999.0    999000   999.0
  42   12:30   28.4    42   14.6   276    21.9   999.00    695.1    999.0    999000   999000   999.0    999000   999.0
  42   12:35   28.3    41   17.8   274    25.8   999.00    695.0    999.0    999000   999000   999.0    999000   999.0
  42   12:40   28.2    42   15.0   277    18.5   999.00    695.0    999.0    999000   999000   999.0    999000   999.0
  42   12:45   28.0    43   15.9   279    26.4   999.00    695.0    999.0    999000   999000   999.0    999000   999.0

Return to DRI Storm Peak Lab. graphs page.


Western Regional Climate Center,wrcc@dri.edu